createdAt,value
2018-10-11T04:44:01.379Z,0.1
2018-10-11T04:45:01.104Z,0.1
2018-10-11T04:46:01.098Z,0.2
2018-10-11T04:47:01.100Z,0.3
2018-10-11T04:49:01.311Z,0.4
2018-10-11T04:50:01.099Z,0.5
2018-10-11T04:52:01.102Z,0.7
2018-10-11T04:53:01.101Z,0.8
2018-10-11T04:54:01.302Z,0.9
2018-10-11T04:55:02.128Z,1.1
2018-10-11T04:56:01.099Z,1.3
2018-10-11T04:57:03.068Z,1.6
2018-10-11T04:58:01.096Z,1.9
2018-10-11T04:59:01.328Z,2.1
2018-10-11T05:00:01.103Z,2.5
2018-10-11T05:01:01.099Z,2.9
2018-10-11T05:02:01.106Z,3.4
2018-10-11T05:03:01.105Z,4.0
2018-10-11T05:04:01.316Z,4.8
2018-10-11T05:05:01.070Z,5.7
2018-10-11T05:06:01.106Z,6.9
2018-10-11T05:07:01.103Z,8.2
2018-10-11T05:08:01.102Z,9.8
2018-10-11T05:09:01.315Z,11.8
2018-10-11T05:10:01.281Z,14.1
2018-10-11T05:11:01.100Z,17.0
2018-10-11T05:12:01.108Z,20.5
2018-10-11T05:13:01.109Z,24.7
2018-10-11T05:14:01.345Z,29.7
2018-10-11T05:15:01.107Z,35.6
2018-10-11T05:16:01.103Z,42.7
2018-10-11T05:17:01.102Z,51.1
2018-10-11T05:18:06.108Z,61.0
2018-10-11T05:19:01.317Z,72.7
2018-10-11T05:20:01.110Z,86.3
2018-10-11T05:21:01.112Z,102.3
2018-10-11T05:22:01.196Z,120.7
2018-10-11T05:23:06.110Z,142.1
2018-10-11T05:24:01.322Z,166.6
2018-10-11T05:26:01.147Z,199.2
2018-10-11T05:27:01.095Z,236.2
2018-10-11T05:28:06.087Z,277.9
2018-10-11T05:29:02.127Z,325.0
2018-10-11T05:30:01.315Z,377.7
2018-10-11T05:31:01.091Z,436.7
2018-10-11T05:32:01.097Z,502.2
2018-10-11T05:33:06.106Z,574.6
2018-10-11T05:34:01.098Z,654.5
2018-10-11T05:35:01.311Z,742.3
2018-10-11T05:36:02.964Z,838.3
2018-10-11T05:37:01.098Z,943.1
2018-10-11T05:38:01.150Z,1057.1
2018-10-11T05:39:01.104Z,1180.3
2018-10-11T05:40:01.311Z,1313.4
2018-10-11T05:41:01.099Z,1452.0
2018-10-11T05:42:01.103Z,1600.5
2018-10-11T05:43:01.141Z,1759.4
2018-10-11T05:44:01.098Z,1928.6
2018-10-11T05:45:01.310Z,2108.1
2018-10-11T05:46:01.102Z,2297.9
2018-10-11T05:47:01.096Z,2498.3
2018-10-11T05:48:01.144Z,2709.3
2018-10-11T05:49:01.101Z,2930.9
2018-10-11T05:50:01.324Z,3162.9
2018-10-11T05:51:01.096Z,3405.7
2018-10-11T05:52:01.103Z,3658.9
2018-10-11T05:53:01.150Z,3922.5
2018-10-11T05:54:01.239Z,4196.2
2018-10-11T05:55:01.306Z,4479.9
2018-10-11T05:56:01.101Z,4773.4
2018-10-11T05:57:01.176Z,5076.3
2018-10-11T05:58:01.147Z,5388.1
2018-10-11T05:59:01.113Z,5708.3
2018-10-11T06:01:01.097Z,6063.8
2018-10-11T06:02:01.094Z,6428.8
2018-10-11T06:03:01.073Z,6802.9
2018-10-11T06:04:01.169Z,7185.5
2018-10-11T06:05:01.334Z,7576.0
2018-10-11T06:06:01.064Z,7974.3
2018-10-11T06:07:01.094Z,8378.4
2018-10-11T06:08:01.096Z,8789.3
2018-10-11T06:09:01.129Z,9207.1
2018-10-11T06:10:01.315Z,9631.3
2018-10-11T06:11:01.118Z,10059.4
2018-10-11T06:12:01.149Z,10492.0
2018-10-11T06:13:01.106Z,10926.7
2018-10-11T06:14:01.100Z,11364.6
2018-10-11T06:15:01.312Z,11803.5
2018-10-11T06:16:01.132Z,12214.2
2018-10-11T06:17:01.104Z,12638.5
2018-10-11T06:18:01.105Z,13071.3
2018-10-11T06:19:01.107Z,13514.1
2018-10-11T06:20:01.315Z,13957.9
2018-10-11T06:21:01.142Z,14401.4
2018-10-11T06:22:01.110Z,14846.7
2018-10-11T06:23:01.112Z,15290.9
2018-10-11T06:24:01.108Z,15735.9
2018-10-11T06:25:01.328Z,16182.9
2018-10-11T06:26:01.152Z,16628.3
2018-10-11T06:27:01.108Z,17075.3
2018-10-11T06:28:01.113Z,17531.9
2018-10-11T06:29:01.110Z,17990.5
2018-10-11T06:30:01.318Z,18456.3
2018-10-11T06:31:01.150Z,18932.5
2018-10-11T06:32:01.111Z,19398.8
2018-10-11T06:33:01.111Z,19859.9
2018-10-11T06:35:01.300Z,20343.9
2018-10-11T06:36:01.146Z,20830.5
2018-10-11T06:37:01.117Z,21322.5
2018-10-11T06:38:01.060Z,21825.0
2018-10-11T06:39:01.098Z,22340.7
2018-10-11T06:40:01.313Z,22868.9
2018-10-11T06:41:01.091Z,23401.7
2018-10-11T06:42:01.257Z,23926.5
2018-10-11T06:43:01.095Z,24448.3
2018-10-11T06:44:01.577Z,25024.7
2018-10-11T06:45:01.297Z,25732.1
2018-10-11T06:46:01.100Z,26560.1
2018-10-11T06:47:01.135Z,27452.4
2018-10-11T06:48:01.229Z,28329.6
2018-10-11T06:49:01.106Z,29234.5
2018-10-11T06:50:01.506Z,30160.4
2018-10-11T06:51:01.093Z,31117.7
2018-10-11T06:52:01.163Z,32038.6
2018-10-11T06:53:01.103Z,32934.9
2018-10-11T06:54:01.104Z,33785.1
2018-10-11T06:55:01.306Z,34624.9
2018-10-11T06:56:01.197Z,35525.9
2018-10-11T06:57:06.112Z,36539.1
2018-10-11T06:58:01.104Z,37610.1
2018-10-11T06:59:01.102Z,38659.1
2018-10-11T07:00:01.318Z,39606.5
2018-10-11T07:01:01.103Z,40469.3
2018-10-11T07:02:06.099Z,41294.6
2018-10-11T07:03:01.107Z,42172.7
2018-10-11T07:04:01.107Z,43062.2
2018-10-11T07:05:01.337Z,43916.6
2018-10-11T07:06:01.100Z,44801.3
2018-10-11T07:07:01.133Z,45751.1
2018-10-11T07:08:01.100Z,46774.6
2018-10-11T07:09:01.105Z,47866.4
2018-10-11T07:10:01.316Z,49006.1
2018-10-11T07:11:01.109Z,50137.3
2018-10-11T07:12:01.252Z,51235.9
2018-10-11T07:13:01.108Z,52342.5
2018-10-11T07:14:01.191Z,53491.8
2018-10-11T07:15:01.315Z,54683.8
2018-10-11T07:16:01.103Z,55916.4
2018-10-11T07:17:06.101Z,57087.9
2018-10-11T07:18:01.102Z,58190.9
2018-10-11T07:19:01.104Z,59224.0
2018-10-11T07:20:01.329Z,60210.8
2018-10-11T07:21:01.109Z,61104.9
2018-10-11T07:22:01.139Z,61937.1
2018-10-11T07:23:01.112Z,62680.9
2018-10-11T07:24:01.113Z,63362.1
2018-10-11T07:25:01.317Z,63963.0
2018-10-11T07:26:01.232Z,64475.7
2018-10-11T07:27:06.123Z,64891.1
2018-10-11T07:28:01.113Z,65214.0
2018-10-11T07:29:01.112Z,65425.5
2018-10-11T07:30:01.403Z,65535.0
2018-10-11T07:40:01.443Z,65399.4
2018-10-11T07:43:01.097Z,64906.4
2018-10-11T07:44:01.103Z,64346.8
2018-10-11T07:45:01.394Z,64346.8
2018-10-11T07:55:01.313Z,64482.4
2018-10-11T07:58:01.130Z,64975.4
2018-10-11T07:59:01.107Z,65535.0
2018-10-11T08:00:03.314Z,65535.0
2018-10-11T08:15:01.376Z,65535.0
2018-10-11T08:30:01.450Z,65535.0
2018-10-11T08:45:01.326Z,65535.0
2018-10-11T09:00:01.452Z,65535.0
2018-10-11T09:15:01.327Z,65535.0
2018-10-11T09:30:01.384Z,65535.0
2018-10-11T09:45:01.323Z,65535.0
2018-10-11T10:00:01.165Z,65535.0
2018-10-11T10:15:01.110Z,65535.0
2018-10-11T10:30:01.437Z,65535.0
2018-10-11T10:45:01.454Z,65535.0
2018-10-11T11:00:01.234Z,65535.0
2018-10-11T11:15:06.119Z,65535.0
2018-10-11T11:30:06.244Z,65535.0
2018-10-11T11:45:06.109Z,65535.0
2018-10-11T12:00:01.524Z,65535.0
2018-10-11T12:15:01.414Z,65535.0
2018-10-11T12:30:01.374Z,65535.0
2018-10-11T12:45:01.107Z,65535.0
2018-10-11T13:00:01.160Z,65535.0
2018-10-11T13:15:01.105Z,65535.0
2018-10-11T13:30:01.391Z,65535.0
2018-10-11T13:45:01.376Z,65535.0
2018-10-11T13:50:01.367Z,65521.5
2018-10-11T14:00:01.172Z,65521.5
2018-10-11T14:05:01.105Z,65535.0
2018-10-11T14:09:01.105Z,65193.1
2018-10-11T14:22:01.436Z,64384.9
2018-10-11T14:23:01.116Z,63796.2
2018-10-11T14:24:01.123Z,63290.2
2018-10-11T14:25:01.090Z,62861.0
2018-10-11T14:26:01.096Z,62150.0
2018-10-11T14:30:01.166Z,62150.0
2018-10-11T14:33:06.097Z,61555.9
2018-10-11T14:34:01.095Z,61004.2
2018-10-11T14:35:01.100Z,59989.8
2018-10-11T14:36:01.100Z,59006.7
2018-10-11T14:37:01.522Z,59691.7
2018-10-11T14:38:01.144Z,60280.4
2018-10-11T14:39:01.103Z,60786.4
2018-10-11T14:40:01.106Z,61557.5
2018-10-11T14:41:01.104Z,62268.5
2018-10-11T14:45:01.228Z,62268.5
2018-10-11T14:48:01.333Z,62348.7
2018-10-11T14:49:06.106Z,61517.4
2018-10-11T14:50:01.104Z,61055.5
2018-10-11T14:51:01.208Z,60534.8
2018-10-11T14:52:01.106Z,59110.7
2018-10-11T14:53:01.309Z,57538.6
2018-10-11T14:54:01.146Z,55922.4
2018-10-11T14:55:01.107Z,54266.0
2018-10-11T14:56:01.105Z,52583.9
2018-10-11T14:58:01.314Z,50859.8
2018-10-11T14:59:01.087Z,49122.3
2018-10-11T15:00:02.071Z,47361.5
2018-10-11T15:01:01.090Z,45583.7
2018-10-11T15:02:01.098Z,43782.7
2018-10-11T15:03:01.547Z,41941.9
2018-10-11T15:04:01.085Z,40584.7
2018-10-11T15:05:01.095Z,40069.5
2018-10-11T15:06:01.095Z,39619.5
2018-10-11T15:07:01.098Z,39178.0
2018-10-11T15:08:01.303Z,38759.1
2018-10-11T15:09:01.101Z,38334.8
2018-10-11T15:10:01.092Z,37925.3
2018-10-11T15:11:01.160Z,37533.4
2018-10-11T15:12:01.094Z,37141.3
2018-10-11T15:13:01.304Z,36765.1
2018-10-11T15:14:01.094Z,36375.6
2018-10-11T15:15:01.102Z,35988.7
2018-10-11T15:16:01.267Z,35593.6
2018-10-11T15:17:02.276Z,35198.7
2018-10-11T15:18:01.434Z,34820.1
2018-10-11T15:19:01.099Z,34442.4
2018-10-11T15:20:01.094Z,34067.7
2018-10-11T15:21:01.105Z,33700.9
2018-10-11T15:22:01.105Z,33328.8
2018-10-11T15:23:01.308Z,32958.1
2018-10-11T15:24:01.215Z,32588.1
2018-10-11T15:25:01.226Z,32223.1
2018-10-11T15:26:01.095Z,31851.4
2018-10-11T15:27:01.094Z,31475.0
2018-10-11T15:28:01.309Z,31094.7
2018-10-11T15:29:01.100Z,30712.1
2018-10-11T15:30:01.114Z,30321.4
2018-10-11T15:31:01.066Z,29932.3
2018-10-11T15:32:01.099Z,29538.7
2018-10-11T15:33:01.309Z,29140.3
2018-10-11T15:34:01.748Z,28740.0
2018-10-11T15:35:01.247Z,28335.5
2018-10-11T15:36:01.074Z,27922.1
2018-10-11T15:37:01.098Z,27506.3
2018-10-11T15:38:01.339Z,27081.7
2018-10-11T15:39:01.098Z,26655.1
2018-10-11T15:40:01.094Z,26224.3
2018-10-11T15:41:01.096Z,25796.0
2018-10-11T15:42:01.378Z,25370.6
2018-10-11T15:43:01.311Z,24948.0
2018-10-11T15:44:01.103Z,24528.0
2018-10-11T15:45:01.102Z,24111.2
2018-10-11T15:46:01.106Z,23688.3
2018-10-11T15:47:01.848Z,23265.0
2018-10-11T15:48:01.316Z,22840.1
2018-10-11T15:49:01.101Z,22417.1
2018-10-11T15:50:01.102Z,21992.3
2018-10-11T15:51:01.101Z,21565.3
2018-10-11T15:52:01.164Z,21133.1
2018-10-11T15:53:01.307Z,20697.9
2018-10-11T15:54:01.104Z,20265.7
2018-10-11T15:55:01.237Z,19837.3
2018-10-11T15:56:01.105Z,19410.2
2018-10-11T15:57:06.108Z,18983.9
2018-10-11T15:58:01.315Z,18557.3
2018-10-11T15:59:01.105Z,18131.7
2018-10-11T16:00:01.945Z,17707.2
2018-10-11T16:01:01.107Z,17286.0
2018-10-11T16:02:01.139Z,16865.4
2018-10-11T16:03:01.353Z,16446.4
2018-10-11T16:04:01.107Z,16027.7
2018-10-11T16:05:01.103Z,15610.6
2018-10-11T16:06:01.113Z,15196.2
2018-10-11T16:07:06.113Z,14783.2
2018-10-11T16:09:01.345Z,14340.5
2018-10-11T16:10:01.096Z,13891.9
2018-10-11T16:11:01.092Z,13427.6
2018-10-11T16:12:01.192Z,12950.6
2018-10-11T16:13:06.099Z,12470.5
2018-10-11T16:14:01.374Z,11987.9
2018-10-11T16:15:01.099Z,11496.1
2018-10-11T16:16:01.108Z,10994.9
2018-10-11T16:17:06.102Z,10490.5
2018-10-11T16:18:01.099Z,9986.9
2018-10-11T16:19:01.307Z,9487.2
2018-10-11T16:20:01.097Z,8994.5
2018-10-11T16:21:01.114Z,8509.0
2018-10-11T16:22:01.150Z,8029.9
2018-10-11T16:23:01.100Z,7559.6
2018-10-11T16:24:01.303Z,7129.8
2018-10-11T16:25:01.093Z,6714.9
2018-10-11T16:26:02.431Z,6321.6
2018-10-11T16:27:01.138Z,5948.4
2018-10-11T16:28:01.106Z,5588.5
2018-10-11T16:29:01.311Z,5242.3
2018-10-11T16:30:01.127Z,4915.2
2018-10-11T16:31:01.106Z,4607.5
2018-10-11T16:32:01.145Z,4315.2
2018-10-11T16:33:01.101Z,4036.5
2018-10-11T16:34:01.425Z,3769.7
2018-10-11T16:35:01.111Z,3513.3
2018-10-11T16:36:01.096Z,3267.3
2018-10-11T16:37:01.095Z,3033.1
2018-10-11T16:38:01.094Z,2810.5
2018-10-11T16:39:01.309Z,2599.0
2018-10-11T16:40:01.067Z,2398.4
2018-10-11T16:41:01.111Z,2208.4
2018-10-11T16:42:01.099Z,2028.9
2018-10-11T16:43:01.125Z,1859.5
2018-10-11T16:44:01.304Z,1700.3
2018-10-11T16:45:01.098Z,1550.8
2018-10-11T16:46:01.178Z,1410.8
2018-10-11T16:47:01.098Z,1279.9
2018-10-11T16:48:01.138Z,1157.7
2018-10-11T16:49:01.311Z,1043.8
2018-10-11T16:50:01.150Z,937.6
2018-10-11T16:51:01.111Z,838.9
2018-10-11T16:52:02.092Z,747.9
2018-10-11T16:53:01.128Z,664.1
2018-10-11T16:54:01.314Z,587.6
2018-10-11T16:55:01.102Z,518.1
2018-10-11T16:56:01.830Z,455.0
2018-10-11T16:57:01.112Z,398.0
2018-10-11T16:58:06.190Z,346.6
2018-10-11T16:59:01.317Z,300.4
2018-10-11T17:00:01.108Z,259.2
2018-10-11T17:01:01.110Z,222.5
2018-10-11T17:02:01.110Z,190.0
2018-10-11T17:03:01.109Z,161.5
2018-10-11T17:04:01.417Z,136.7
2018-10-11T17:05:01.107Z,115.4
2018-10-11T17:06:01.121Z,97.3
2018-10-11T17:07:01.107Z,81.9
2018-10-11T17:08:01.288Z,68.9
2018-10-11T17:10:01.452Z,57.8
2018-10-11T17:11:01.091Z,48.4
2018-10-11T17:12:01.095Z,40.5
2018-10-11T17:13:01.107Z,33.9
2018-10-11T17:14:06.095Z,28.3
2018-10-11T17:15:01.300Z,23.5
2018-10-11T17:16:01.094Z,19.6
2018-10-11T17:17:01.105Z,16.3
2018-10-11T17:18:01.091Z,13.5
2018-10-11T17:19:06.104Z,11.1
2018-10-11T17:20:01.304Z,9.2
2018-10-11T17:21:01.225Z,7.6
2018-10-11T17:22:01.117Z,6.2
2018-10-11T17:23:01.098Z,5.1
2018-10-11T17:24:06.098Z,4.1
2018-10-11T17:25:03.231Z,3.5
2018-10-11T17:26:01.100Z,2.9
2018-10-11T17:27:01.102Z,2.5
2018-10-11T17:28:01.099Z,2.1
2018-10-11T17:29:06.099Z,1.8
2018-10-11T17:30:01.311Z,1.5
2018-10-11T17:31:01.099Z,1.3
2018-10-11T17:32:01.097Z,1.1
2018-10-11T17:33:01.125Z,0.9
2018-10-11T17:34:01.103Z,0.7
2018-10-11T17:35:01.395Z,0.6
2018-10-11T17:36:01.100Z,0.5
2018-10-11T17:37:01.105Z,0.4
2018-10-11T17:38:06.105Z,0.3
2018-10-11T17:40:01.352Z,0.2
2018-10-11T17:41:01.105Z,0.1
